sensor_id;sensor_type;location;lat;lon;timestamp;temperature;humidity
46608;DHT22;32330;51.936;7.184;2024-03-17T00:01:59;4.90;99.90
46608;DHT22;32330;51.936;7.184;2024-03-17T00:04:25;4.90;99.90
46608;DHT22;32330;51.936;7.184;2024-03-17T00:06:54;4.90;99.90
46608;DHT22;32330;51.936;7.184;2024-03-17T00:09:20;4.90;99.90
46608;DHT22;32330;51.936;7.184;2024-03-17T00:11:47;4.90;99.90
46608;DHT22;32330;51.936;7.184;2024-03-17T00:14:13;4.90;99.90
46608;DHT22;32330;51.936;7.184;2024-03-17T00:16:40;4.80;99.90
46608;DHT22;32330;51.936;7.184;2024-03-17T00:19:06;4.80;99.90
46608;DHT22;32330;51.936;7.184;2024-03-17T00:21:34;4.80;99.90
46608;DHT22;32330;51.936;7.184;2024-03-17T00:24:01;4.80;99.90
46608;DHT22;32330;51.936;7.184;2024-03-17T00:26:28;4.70;99.90
46608;DHT22;32330;51.936;7.184;2024-03-17T00:28:55;4.70;99.90
46608;DHT22;32330;51.936;7.184;2024-03-17T00:31:22;4.70;99.90
46608;DHT22;32330;51.936;7.184;2024-03-17T00:33:51;4.70;99.90
46608;DHT22;32330;51.936;7.184;2024-03-17T00:36:18;4.70;99.90
46608;DHT22;32330;51.936;7.184;2024-03-17T00:38:45;4.70;99.90
46608;DHT22;32330;51.936;7.184;2024-03-17T00:41:13;4.70;99.90
46608;DHT22;32330;51.936;7.184;2024-03-17T00:43:39;4.60;99.90
46608;DHT22;32330;51.936;7.184;2024-03-17T00:46:06;4.60;99.90
46608;DHT22;32330;51.936;7.184;2024-03-17T00:48:33;4.60;99.90
46608;DHT22;32330;51.936;7.184;2024-03-17T00:51:00;4.60;99.90
46608;DHT22;32330;51.936;7.184;2024-03-17T00:53:26;4.60;99.90
46608;DHT22;32330;51.936;7.184;2024-03-17T00:55:53;4.50;99.90
46608;DHT22;32330;51.936;7.184;2024-03-17T00:58:21;4.50;99.90
46608;DHT22;32330;51.936;7.184;2024-03-17T01:00:48;4.50;99.90
46608;DHT22;32330;51.936;7.184;2024-03-17T01:03:15;4.50;99.90
46608;DHT22;32330;51.936;7.184;2024-03-17T01:05:42;4.40;99.90
46608;DHT22;32330;51.936;7.184;2024-03-17T01:08:10;4.40;99.90
46608;DHT22;32330;51.936;7.184;2024-03-17T01:10:37;4.40;99.90
46608;DHT22;32330;51.936;7.184;2024-03-17T01:13:05;4.30;99.90
46608;DHT22;32330;51.936;7.184;2024-03-17T01:15:35;4.30;99.90
46608;DHT22;32330;51.936;7.184;2024-03-17T01:18:01;4.30;99.90
46608;DHT22;32330;51.936;7.184;2024-03-17T01:20:30;4.30;99.90
46608;DHT22;32330;51.936;7.184;2024-03-17T01:22:56;4.30;99.90
46608;DHT22;32330;51.936;7.184;2024-03-17T01:25:23;4.30;99.90
46608;DHT22;32330;51.936;7.184;2024-03-17T01:27:51;4.20;99.90
46608;DHT22;32330;51.936;7.184;2024-03-17T01:30:18;4.20;99.90
46608;DHT22;32330;51.936;7.184;2024-03-17T01:32:46;4.20;99.90
46608;DHT22;32330;51.936;7.184;2024-03-17T01:35:14;4.20;99.90
46608;DHT22;32330;51.936;7.184;2024-03-17T01:37:41;4.20;99.90
46608;DHT22;32330;51.936;7.184;2024-03-17T01:40:09;4.20;99.90
46608;DHT22;32330;51.936;7.184;2024-03-17T01:42:36;4.10;99.90
46608;DHT22;32330;51.936;7.184;2024-03-17T01:45:20;4.10;99.90
46608;DHT22;32330;51.936;7.184;2024-03-17T01:47:51;4.10;99.90
46608;DHT22;32330;51.936;7.184;2024-03-17T01:50:18;4.10;99.90
46608;DHT22;32330;51.936;7.184;2024-03-17T01:52:51;4.00;99.90
46608;DHT22;32330;51.936;7.184;2024-03-17T01:55:20;4.10;99.90
46608;DHT22;32330;51.936;7.184;2024-03-17T01:57:46;4.00;99.90
46608;DHT22;32330;51.936;7.184;2024-03-17T02:00:14;4.00;99.90
46608;DHT22;32330;51.936;7.184;2024-03-17T02:02:40;4.00;99.90
46608;DHT22;32330;51.936;7.184;2024-03-17T02:05:09;3.90;99.90
46608;DHT22;32330;51.936;7.184;2024-03-17T02:07:36;4.00;99.90
46608;DHT22;32330;51.936;7.184;2024-03-17T02:10:03;3.90;99.90
46608;DHT22;32330;51.936;7.184;2024-03-17T02:12:31;3.90;99.90
46608;DHT22;32330;51.936;7.184;2024-03-17T02:14:58;3.80;99.90
46608;DHT22;32330;51.936;7.184;2024-03-17T02:17:25;3.90;99.90
46608;DHT22;32330;51.936;7.184;2024-03-17T02:19:53;3.80;99.90
46608;DHT22;32330;51.936;7.184;2024-03-17T02:22:21;3.80;99.90
46608;DHT22;32330;51.936;7.184;2024-03-17T02:24:47;3.80;99.90
46608;DHT22;32330;51.936;7.184;2024-03-17T02:27:14;3.80;99.90
46608;DHT22;32330;51.936;7.184;2024-03-17T02:29:40;3.70;99.90
46608;DHT22;32330;51.936;7.184;2024-03-17T02:32:07;3.70;99.90
46608;DHT22;32330;51.936;7.184;2024-03-17T02:34:34;3.70;99.90
46608;DHT22;32330;51.936;7.184;2024-03-17T02:37:01;3.70;99.90
46608;DHT22;32330;51.936;7.184;2024-03-17T02:39:30;3.60;99.90
46608;DHT22;32330;51.936;7.184;2024-03-17T02:42:00;3.60;99.90
46608;DHT22;32330;51.936;7.184;2024-03-17T02:44:29;3.60;99.90
46608;DHT22;32330;51.936;7.184;2024-03-17T02:46:56;3.60;99.90
46608;DHT22;32330;51.936;7.184;2024-03-17T02:49:24;3.60;99.90
46608;DHT22;32330;51.936;7.184;2024-03-17T02:51:53;3.60;99.90
46608;DHT22;32330;51.936;7.184;2024-03-17T02:54:20;3.50;99.90
46608;DHT22;32330;51.936;7.184;2024-03-17T02:56:49;3.50;99.90
46608;DHT22;32330;51.936;7.184;2024-03-17T02:59:16;3.50;99.90
46608;DHT22;32330;51.936;7.184;2024-03-17T03:01:43;3.50;99.90
46608;DHT22;32330;51.936;7.184;2024-03-17T03:04:11;3.50;99.90
46608;DHT22;32330;51.936;7.184;2024-03-17T03:06:38;3.50;99.90
46608;DHT22;32330;51.936;7.184;2024-03-17T03:09:05;3.50;99.90
46608;DHT22;32330;51.936;7.184;2024-03-17T03:11:38;3.50;99.90
46608;DHT22;32330;51.936;7.184;2024-03-17T03:14:07;3.50;99.90
46608;DHT22;32330;51.936;7.184;2024-03-17T03:16:34;3.50;99.90
46608;DHT22;32330;51.936;7.184;2024-03-17T03:19:02;3.50;99.90
46608;DHT22;32330;51.936;7.184;2024-03-17T03:21:29;3.50;99.90
46608;DHT22;32330;51.936;7.184;2024-03-17T03:23:56;3.50;99.90
46608;DHT22;32330;51.936;7.184;2024-03-17T03:26:23;3.40;99.90
46608;DHT22;32330;51.936;7.184;2024-03-17T03:28:50;3.50;99.90
46608;DHT22;32330;51.936;7.184;2024-03-17T03:31:21;3.40;99.90
46608;DHT22;32330;51.936;7.184;2024-03-17T03:33:48;3.50;99.90
46608;DHT22;32330;51.936;7.184;2024-03-17T03:36:16;3.50;99.90
46608;DHT22;32330;51.936;7.184;2024-03-17T03:38:43;3.50;99.90
46608;DHT22;32330;51.936;7.184;2024-03-17T03:41:12;3.50;99.90
46608;DHT22;32330;51.936;7.184;2024-03-17T03:43:39;3.40;99.90
46608;DHT22;32330;51.936;7.184;2024-03-17T03:46:07;3.40;99.90
46608;DHT22;32330;51.936;7.184;2024-03-17T03:48:36;3.40;99.90
46608;DHT22;32330;51.936;7.184;2024-03-17T03:51:04;3.40;99.90
46608;DHT22;32330;51.936;7.184;2024-03-17T03:53:31;3.40;99.90
46608;DHT22;32330;51.936;7.184;2024-03-17T03:55:58;3.30;99.90
46608;DHT22;32330;51.936;7.184;2024-03-17T03:58:27;3.40;99.90
46608;DHT22;32330;51.936;7.184;2024-03-17T04:00:54;3.30;99.90
46608;DHT22;32330;51.936;7.184;2024-03-17T04:03:22;3.30;99.90
46608;DHT22;32330;51.936;7.184;2024-03-17T04:05:50;3.30;99.90
46608;DHT22;32330;51.936;7.184;2024-03-17T04:08:19;3.30;99.90
46608;DHT22;32330;51.936;7.184;2024-03-17T04:10:49;3.30;99.90
46608;DHT22;32330;51.936;7.184;2024-03-17T04:13:17;3.20;99.90
46608;DHT22;32330;51.936;7.184;2024-03-17T04:15:44;3.20;99.90
46608;DHT22;32330;51.936;7.184;2024-03-17T04:18:11;3.20;99.90
46608;DHT22;32330;51.936;7.184;2024-03-17T04:20:40;3.20;99.90
46608;DHT22;32330;51.936;7.184;2024-03-17T04:23:09;3.20;99.90
46608;DHT22;32330;51.936;7.184;2024-03-17T04:25:36;3.20;99.90
46608;DHT22;32330;51.936;7.184;2024-03-17T04:28:04;3.20;99.90
46608;DHT22;32330;51.936;7.184;2024-03-17T04:30:31;3.10;99.90
46608;DHT22;32330;51.936;7.184;2024-03-17T04:32:58;3.10;99.90
46608;DHT22;32330;51.936;7.184;2024-03-17T04:35:25;3.10;99.90
46608;DHT22;32330;51.936;7.184;2024-03-17T04:37:52;3.20;99.90
46608;DHT22;32330;51.936;7.184;2024-03-17T04:40:24;3.20;99.90
46608;DHT22;32330;51.936;7.184;2024-03-17T04:42:51;3.20;99.90
46608;DHT22;32330;51.936;7.184;2024-03-17T04:45:18;3.20;99.90
46608;DHT22;32330;51.936;7.184;2024-03-17T04:47:45;3.20;99.90
46608;DHT22;32330;51.936;7.184;2024-03-17T04:50:13;3.20;99.90
46608;DHT22;32330;51.936;7.184;2024-03-17T04:52:40;3.20;99.90
46608;DHT22;32330;51.936;7.184;2024-03-17T04:55:08;3.20;99.90
46608;DHT22;32330;51.936;7.184;2024-03-17T04:57:36;3.20;99.90
46608;DHT22;32330;51.936;7.184;2024-03-17T05:00:05;3.20;99.90
46608;DHT22;32330;51.936;7.184;2024-03-17T05:02:33;3.20;99.90
46608;DHT22;32330;51.936;7.184;2024-03-17T05:05:00;3.20;99.90
46608;DHT22;32330;51.936;7.184;2024-03-17T05:07:27;3.20;99.90
46608;DHT22;32330;51.936;7.184;2024-03-17T05:09:54;3.20;99.90
46608;DHT22;32330;51.936;7.184;2024-03-17T05:12:21;3.20;99.90
46608;DHT22;32330;51.936;7.184;2024-03-17T05:14:49;3.30;99.90
46608;DHT22;32330;51.936;7.184;2024-03-17T05:17:16;3.30;99.90
46608;DHT22;32330;51.936;7.184;2024-03-17T05:19:43;3.30;99.90
46608;DHT22;32330;51.936;7.184;2024-03-17T05:22:10;3.30;99.90
46608;DHT22;32330;51.936;7.184;2024-03-17T05:24:38;3.30;99.90
46608;DHT22;32330;51.936;7.184;2024-03-17T05:27:05;3.30;99.90
46608;DHT22;32330;51.936;7.184;2024-03-17T05:29:32;3.30;99.90
46608;DHT22;32330;51.936;7.184;2024-03-17T05:32:05;3.30;99.90
46608;DHT22;32330;51.936;7.184;2024-03-17T05:34:32;3.30;99.90
46608;DHT22;32330;51.936;7.184;2024-03-17T05:36:59;3.30;99.90
46608;DHT22;32330;51.936;7.184;2024-03-17T05:39:27;3.30;99.90
46608;DHT22;32330;51.936;7.184;2024-03-17T05:41:54;3.30;99.90
46608;DHT22;32330;51.936;7.184;2024-03-17T05:44:21;3.30;99.90
46608;DHT22;32330;51.936;7.184;2024-03-17T05:46:48;3.30;99.90
46608;DHT22;32330;51.936;7.184;2024-03-17T05:49:20;3.30;99.90
46608;DHT22;32330;51.936;7.184;2024-03-17T05:51:47;3.40;99.90
46608;DHT22;32330;51.936;7.184;2024-03-17T05:54:15;3.40;99.90
46608;DHT22;32330;51.936;7.184;2024-03-17T05:56:42;3.40;99.90
46608;DHT22;32330;51.936;7.184;2024-03-17T05:59:09;3.40;99.90
46608;DHT22;32330;51.936;7.184;2024-03-17T06:01:36;3.50;99.90
46608;DHT22;32330;51.936;7.184;2024-03-17T06:04:03;3.50;99.90
46608;DHT22;32330;51.936;7.184;2024-03-17T06:06:32;3.60;99.90
46608;DHT22;32330;51.936;7.184;2024-03-17T06:08:59;3.60;99.90
46608;DHT22;32330;51.936;7.184;2024-03-17T06:11:26;3.70;99.90
46608;DHT22;32330;51.936;7.184;2024-03-17T06:13:54;3.80;99.90
46608;DHT22;32330;51.936;7.184;2024-03-17T06:16:21;3.80;99.90
46608;DHT22;32330;51.936;7.184;2024-03-17T06:18:48;3.90;99.90
46608;DHT22;32330;51.936;7.184;2024-03-17T06:21:17;4.00;99.90
46608;DHT22;32330;51.936;7.184;2024-03-17T06:23:46;4.00;99.90
46608;DHT22;32330;51.936;7.184;2024-03-17T06:26:13;4.10;99.90
46608;DHT22;32330;51.936;7.184;2024-03-17T06:28:40;4.20;99.90
46608;DHT22;32330;51.936;7.184;2024-03-17T06:31:08;4.20;99.90
46608;DHT22;32330;51.936;7.184;2024-03-17T06:33:36;4.30;99.90
46608;DHT22;32330;51.936;7.184;2024-03-17T06:36:03;4.40;99.90
46608;DHT22;32330;51.936;7.184;2024-03-17T06:38:31;4.40;99.90
46608;DHT22;32330;51.936;7.184;2024-03-17T06:41:00;4.60;99.90
46608;DHT22;32330;51.936;7.184;2024-03-17T06:43:27;4.60;99.90
46608;DHT22;32330;51.936;7.184;2024-03-17T06:45:55;4.60;99.90
46608;DHT22;32330;51.936;7.184;2024-03-17T06:48:22;4.80;99.90
46608;DHT22;32330;51.936;7.184;2024-03-17T06:50:50;4.80;99.90
46608;DHT22;32330;51.936;7.184;2024-03-17T06:53:18;4.80;99.90
46608;DHT22;32330;51.936;7.184;2024-03-17T06:55:55;4.90;99.90
46608;DHT22;32330;51.936;7.184;2024-03-17T06:58:25;4.90;99.90
46608;DHT22;32330;51.936;7.184;2024-03-17T07:00:54;4.90;99.90
46608;DHT22;32330;51.936;7.184;2024-03-17T07:03:22;5.00;99.90
46608;DHT22;32330;51.936;7.184;2024-03-17T07:05:54;5.00;99.90
46608;DHT22;32330;51.936;7.184;2024-03-17T07:08:23;5.00;99.90
46608;DHT22;32330;51.936;7.184;2024-03-17T07:10:57;5.00;99.90
46608;DHT22;32330;51.936;7.184;2024-03-17T07:13:29;5.00;99.90
46608;DHT22;32330;51.936;7.184;2024-03-17T07:15:56;5.10;99.90
46608;DHT22;32330;51.936;7.184;2024-03-17T07:18:25;5.10;99.90
46608;DHT22;32330;51.936;7.184;2024-03-17T07:20:53;5.10;99.90
46608;DHT22;32330;51.936;7.184;2024-03-17T07:23:23;5.20;99.90
46608;DHT22;32330;51.936;7.184;2024-03-17T07:25:54;5.20;99.90
46608;DHT22;32330;51.936;7.184;2024-03-17T07:28:22;5.30;99.90
46608;DHT22;32330;51.936;7.184;2024-03-17T07:30:52;5.30;99.90
46608;DHT22;32330;51.936;7.184;2024-03-17T07:33:20;5.50;99.90
46608;DHT22;32330;51.936;7.184;2024-03-17T07:35:48;5.60;99.90
46608;DHT22;32330;51.936;7.184;2024-03-17T07:38:15;5.80;99.90
46608;DHT22;32330;51.936;7.184;2024-03-17T07:40:43;6.00;99.90
46608;DHT22;32330;51.936;7.184;2024-03-17T07:43:10;6.10;96.20
46608;DHT22;32330;51.936;7.184;2024-03-17T07:45:38;6.30;92.70
46608;DHT22;32330;51.936;7.184;2024-03-17T07:48:07;6.50;90.50
46608;DHT22;32330;51.936;7.184;2024-03-17T07:50:34;6.50;83.60
46608;DHT22;32330;51.936;7.184;2024-03-17T07:53:01;6.60;77.80
46608;DHT22;32330;51.936;7.184;2024-03-17T07:55:29;6.70;75.40
46608;DHT22;32330;51.936;7.184;2024-03-17T07:57:57;6.90;74.00
46608;DHT22;32330;51.936;7.184;2024-03-17T08:00:24;7.00;70.80
46608;DHT22;32330;51.936;7.184;2024-03-17T08:02:51;7.00;65.40
46608;DHT22;32330;51.936;7.184;2024-03-17T08:05:20;7.20;60.70
46608;DHT22;32330;51.936;7.184;2024-03-17T08:07:48;7.30;60.30
46608;DHT22;32330;51.936;7.184;2024-03-17T08:10:15;7.40;54.30
46608;DHT22;32330;51.936;7.184;2024-03-17T08:12:43;7.40;52.70
46608;DHT22;32330;51.936;7.184;2024-03-17T08:15:11;7.60;48.30
46608;DHT22;32330;51.936;7.184;2024-03-17T08:17:39;7.80;49.40
46608;DHT22;32330;51.936;7.184;2024-03-17T08:20:07;7.90;43.90
46608;DHT22;32330;51.936;7.184;2024-03-17T08:22:36;7.80;40.00
46608;DHT22;32330;51.936;7.184;2024-03-17T08:25:04;7.90;31.10
46608;DHT22;32330;51.936;7.184;2024-03-17T08:27:31;7.90;31.90
46608;DHT22;32330;51.936;7.184;2024-03-17T08:29:58;8.00;36.70
46608;DHT22;32330;51.936;7.184;2024-03-17T08:32:25;8.00;29.60
46608;DHT22;32330;51.936;7.184;2024-03-17T08:34:52;8.00;28.70
46608;DHT22;32330;51.936;7.184;2024-03-17T08:37:20;8.10;24.10
46608;DHT22;32330;51.936;7.184;2024-03-17T08:39:52;8.10;24.40
46608;DHT22;32330;51.936;7.184;2024-03-17T08:42:19;8.10;22.80
46608;DHT22;32330;51.936;7.184;2024-03-17T08:44:47;8.30;24.60
46608;DHT22;32330;51.936;7.184;2024-03-17T08:47:14;8.30;19.90
46608;DHT22;32330;51.936;7.184;2024-03-17T08:49:41;8.30;19.60
46608;DHT22;32330;51.936;7.184;2024-03-17T08:52:08;8.30;16.90
46608;DHT22;32330;51.936;7.184;2024-03-17T08:54:35;8.30;14.20
46608;DHT22;32330;51.936;7.184;2024-03-17T08:57:07;8.50;20.20
46608;DHT22;32330;51.936;7.184;2024-03-17T08:59:38;8.50;16.50
46608;DHT22;32330;51.936;7.184;2024-03-17T09:02:16;8.60;17.00
46608;DHT22;32330;51.936;7.184;2024-03-17T09:04:44;8.70;12.50
46608;DHT22;32330;51.936;7.184;2024-03-17T09:07:15;8.70;11.30
46608;DHT22;32330;51.936;7.184;2024-03-17T09:09:59;8.80;6.10
46608;DHT22;32330;51.936;7.184;2024-03-17T09:29:22;9.90;1.00
46608;DHT22;32330;51.936;7.184;2024-03-17T09:31:53;10.10;1.00
46608;DHT22;32330;51.936;7.184;2024-03-17T09:34:35;10.40;1.00
46608;DHT22;32330;51.936;7.184;2024-03-17T09:37:48;10.40;1.00
46608;DHT22;32330;51.936;7.184;2024-03-17T09:40:31;10.50;1.00
46608;DHT22;32330;51.936;7.184;2024-03-17T09:43:05;10.80;1.00
46608;DHT22;32330;51.936;7.184;2024-03-17T09:45:37;10.90;1.00
46608;DHT22;32330;51.936;7.184;2024-03-17T09:48:05;10.90;99.90
46608;DHT22;32330;51.936;7.184;2024-03-17T09:50:34;10.90;99.90
46608;DHT22;32330;51.936;7.184;2024-03-17T09:53:02;11.10;99.90
46608;DHT22;32330;51.936;7.184;2024-03-17T09:55:30;11.10;99.90
46608;DHT22;32330;51.936;7.184;2024-03-17T09:57:57;11.20;99.90
46608;DHT22;32330;51.936;7.184;2024-03-17T10:00:25;11.30;99.90
46608;DHT22;32330;51.936;7.184;2024-03-17T10:02:53;11.30;99.90
46608;DHT22;32330;51.936;7.184;2024-03-17T10:05:22;11.30;99.90
46608;DHT22;32330;51.936;7.184;2024-03-17T10:07:51;11.40;99.90
46608;DHT22;32330;51.936;7.184;2024-03-17T10:10:21;11.50;99.90
46608;DHT22;32330;51.936;7.184;2024-03-17T10:12:49;11.70;99.90
46608;DHT22;32330;51.936;7.184;2024-03-17T10:15:18;11.90;99.90
46608;DHT22;32330;51.936;7.184;2024-03-17T10:17:46;12.00;99.90
46608;DHT22;32330;51.936;7.184;2024-03-17T10:20:16;12.10;99.90
46608;DHT22;32330;51.936;7.184;2024-03-17T10:23:05;12.20;99.90
46608;DHT22;32330;51.936;7.184;2024-03-17T10:25:35;12.20;99.90
46608;DHT22;32330;51.936;7.184;2024-03-17T10:28:09;12.10;99.90
46608;DHT22;32330;51.936;7.184;2024-03-17T10:30:37;12.10;99.90
46608;DHT22;32330;51.936;7.184;2024-03-17T10:33:06;12.30;99.90
46608;DHT22;32330;51.936;7.184;2024-03-17T10:35:38;12.40;99.90
46608;DHT22;32330;51.936;7.184;2024-03-17T10:38:07;12.50;99.90
46608;DHT22;32330;51.936;7.184;2024-03-17T10:40:35;12.50;99.90
46608;DHT22;32330;51.936;7.184;2024-03-17T10:43:05;12.60;99.90
46608;DHT22;32330;51.936;7.184;2024-03-17T10:45:34;12.70;99.90
46608;DHT22;32330;51.936;7.184;2024-03-17T10:48:07;12.80;99.90
46608;DHT22;32330;51.936;7.184;2024-03-17T10:50:38;12.90;99.90
46608;DHT22;32330;51.936;7.184;2024-03-17T10:53:07;13.00;96.90
46608;DHT22;32330;51.936;7.184;2024-03-17T10:55:42;13.10;99.90
46608;DHT22;32330;51.936;7.184;2024-03-17T10:58:21;13.20;99.90
46608;DHT22;32330;51.936;7.184;2024-03-17T11:00:51;13.60;99.90
46608;DHT22;32330;51.936;7.184;2024-03-17T11:03:18;13.80;1.00
46608;DHT22;32330;51.936;7.184;2024-03-17T11:05:50;13.80;93.90
46608;DHT22;32330;51.936;7.184;2024-03-17T11:08:19;13.80;99.90
46608;DHT22;32330;51.936;7.184;2024-03-17T11:10:50;13.80;99.90
46608;DHT22;32330;51.936;7.184;2024-03-17T11:13:23;13.80;1.00
46608;DHT22;32330;51.936;7.184;2024-03-17T11:15:51;13.70;1.00
46608;DHT22;32330;51.936;7.184;2024-03-17T11:18:37;13.70;99.90
46608;DHT22;32330;51.936;7.184;2024-03-17T11:21:17;13.80;1.00
46608;DHT22;32330;51.936;7.184;2024-03-17T11:23:55;13.80;99.90
46608;DHT22;32330;51.936;7.184;2024-03-17T11:26:27;14.00;99.90
46608;DHT22;32330;51.936;7.184;2024-03-17T11:28:54;14.10;99.90
46608;DHT22;32330;51.936;7.184;2024-03-17T11:31:35;14.20;99.90
46608;DHT22;32330;51.936;7.184;2024-03-17T11:34:04;14.20;99.90
46608;DHT22;32330;51.936;7.184;2024-03-17T11:36:37;14.20;1.00
46608;DHT22;32330;51.936;7.184;2024-03-17T11:39:04;14.10;99.90
46608;DHT22;32330;51.936;7.184;2024-03-17T11:41:38;14.10;99.90
46608;DHT22;32330;51.936;7.184;2024-03-17T11:44:24;14.10;99.90
46608;DHT22;32330;51.936;7.184;2024-03-17T11:46:53;14.30;91.20
46608;DHT22;32330;51.936;7.184;2024-03-17T11:49:21;14.30;99.90
46608;DHT22;32330;51.936;7.184;2024-03-17T11:51:50;14.40;18.10
46608;DHT22;32330;51.936;7.184;2024-03-17T11:54:18;14.30;3.20
46608;DHT22;32330;51.936;7.184;2024-03-17T11:56:47;14.30;99.90
46608;DHT22;32330;51.936;7.184;2024-03-17T11:59:14;14.50;79.30
46608;DHT22;32330;51.936;7.184;2024-03-17T12:01:44;14.60;1.00
46608;DHT22;32330;51.936;7.184;2024-03-17T12:04:12;14.60;99.90
46608;DHT22;32330;51.936;7.184;2024-03-17T12:06:44;14.60;99.90
46608;DHT22;32330;51.936;7.184;2024-03-17T12:09:19;14.60;99.90
46608;DHT22;32330;51.936;7.184;2024-03-17T12:11:47;14.40;99.90
46608;DHT22;32330;51.936;7.184;2024-03-17T12:14:19;14.50;1.00
46608;DHT22;32330;51.936;7.184;2024-03-17T12:16:52;14.40;99.90
46608;DHT22;32330;51.936;7.184;2024-03-17T12:19:20;14.40;99.90
46608;DHT22;32330;51.936;7.184;2024-03-17T12:21:48;14.40;99.90
46608;DHT22;32330;51.936;7.184;2024-03-17T12:24:19;14.50;99.90
46608;DHT22;32330;51.936;7.184;2024-03-17T12:26:48;14.50;1.00
46608;DHT22;32330;51.936;7.184;2024-03-17T12:29:25;14.50;99.90
46608;DHT22;32330;51.936;7.184;2024-03-17T12:31:54;14.60;99.90
46608;DHT22;32330;51.936;7.184;2024-03-17T12:34:22;14.80;99.90
46608;DHT22;32330;51.936;7.184;2024-03-17T12:36:53;14.90;99.90
46608;DHT22;32330;51.936;7.184;2024-03-17T12:39:22;14.90;99.90
46608;DHT22;32330;51.936;7.184;2024-03-17T12:42:06;14.80;1.00
46608;DHT22;32330;51.936;7.184;2024-03-17T12:44:33;14.90;99.90
46608;DHT22;32330;51.936;7.184;2024-03-17T12:47:01;14.90;99.90
46608;DHT22;32330;51.936;7.184;2024-03-17T12:49:28;15.10;99.90
46608;DHT22;32330;51.936;7.184;2024-03-17T12:51:55;14.90;99.90
46608;DHT22;32330;51.936;7.184;2024-03-17T12:54:24;14.90;99.90
46608;DHT22;32330;51.936;7.184;2024-03-17T12:56:53;15.00;99.90
46608;DHT22;32330;51.936;7.184;2024-03-17T12:59:47;15.10;99.90
46608;DHT22;32330;51.936;7.184;2024-03-17T13:02:31;15.10;99.90
46608;DHT22;32330;51.936;7.184;2024-03-17T13:05:15;14.90;1.00
46608;DHT22;32330;51.936;7.184;2024-03-17T13:07:43;14.90;99.90
46608;DHT22;32330;51.936;7.184;2024-03-17T13:10:14;14.90;99.90
46608;DHT22;32330;51.936;7.184;2024-03-17T13:12:42;15.00;99.90
46608;DHT22;32330;51.936;7.184;2024-03-17T13:15:11;14.90;99.90
46608;DHT22;32330;51.936;7.184;2024-03-17T13:17:39;15.00;99.90
46608;DHT22;32330;51.936;7.184;2024-03-17T13:20:07;15.10;99.90
46608;DHT22;32330;51.936;7.184;2024-03-17T13:22:37;15.10;99.90
46608;DHT22;32330;51.936;7.184;2024-03-17T13:25:09;15.10;99.90
46608;DHT22;32330;51.936;7.184;2024-03-17T13:27:40;15.30;1.00
46608;DHT22;32330;51.936;7.184;2024-03-17T13:30:09;15.20;99.90
46608;DHT22;32330;51.936;7.184;2024-03-17T13:32:36;15.10;99.90
46608;DHT22;32330;51.936;7.184;2024-03-17T13:35:03;15.20;99.90
46608;DHT22;32330;51.936;7.184;2024-03-17T13:37:32;15.10;99.90
46608;DHT22;32330;51.936;7.184;2024-03-17T13:39:59;14.90;99.90
46608;DHT22;32330;51.936;7.184;2024-03-17T13:42:28;14.90;99.90
46608;DHT22;32330;51.936;7.184;2024-03-17T13:44:57;14.90;1.00
46608;DHT22;32330;51.936;7.184;2024-03-17T13:47:25;14.90;99.90
46608;DHT22;32330;51.936;7.184;2024-03-17T13:49:52;14.80;99.90
46608;DHT22;32330;51.936;7.184;2024-03-17T13:52:19;14.90;1.00
46608;DHT22;32330;51.936;7.184;2024-03-17T13:54:46;14.90;99.90
46608;DHT22;32330;51.936;7.184;2024-03-17T13:57:14;14.90;99.90
46608;DHT22;32330;51.936;7.184;2024-03-17T13:59:42;14.90;99.90
46608;DHT22;32330;51.936;7.184;2024-03-17T14:02:12;14.90;99.90
46608;DHT22;32330;51.936;7.184;2024-03-17T14:04:40;14.80;60.70
46608;DHT22;32330;51.936;7.184;2024-03-17T14:07:07;14.90;52.60
46608;DHT22;32330;51.936;7.184;2024-03-17T14:09:35;14.80;99.90
46608;DHT22;32330;51.936;7.184;2024-03-17T14:12:02;14.70;99.90
46608;DHT22;32330;51.936;7.184;2024-03-17T14:14:30;14.70;99.90
46608;DHT22;32330;51.936;7.184;2024-03-17T14:16:57;14.60;1.00
46608;DHT22;32330;51.936;7.184;2024-03-17T14:19:26;14.60;1.00
46608;DHT22;32330;51.936;7.184;2024-03-17T14:21:53;14.50;99.90
46608;DHT22;32330;51.936;7.184;2024-03-17T14:24:20;14.40;99.90
46608;DHT22;32330;51.936;7.184;2024-03-17T14:26:47;14.40;99.90
46608;DHT22;32330;51.936;7.184;2024-03-17T14:29:14;14.40;99.90
46608;DHT22;32330;51.936;7.184;2024-03-17T14:31:42;14.40;1.00
46608;DHT22;32330;51.936;7.184;2024-03-17T14:34:10;14.30;99.90
46608;DHT22;32330;51.936;7.184;2024-03-17T14:36:38;14.30;99.90
46608;DHT22;32330;51.936;7.184;2024-03-17T14:39:05;14.40;99.90
46608;DHT22;32330;51.936;7.184;2024-03-17T14:41:33;14.40;99.90
46608;DHT22;32330;51.936;7.184;2024-03-17T14:44:01;14.30;68.50
46608;DHT22;32330;51.936;7.184;2024-03-17T14:46:30;14.20;99.90
46608;DHT22;32330;51.936;7.184;2024-03-17T14:48:57;14.10;37.30
46608;DHT22;32330;51.936;7.184;2024-03-17T14:51:24;14.10;99.90
46608;DHT22;32330;51.936;7.184;2024-03-17T14:53:59;14.10;1.00
46608;DHT22;32330;51.936;7.184;2024-03-17T14:56:26;14.20;99.90
46608;DHT22;32330;51.936;7.184;2024-03-17T14:58:53;14.10;68.30
46608;DHT22;32330;51.936;7.184;2024-03-17T15:01:21;14.10;61.30
46608;DHT22;32330;51.936;7.184;2024-03-17T15:03:48;14.10;84.00
46608;DHT22;32330;51.936;7.184;2024-03-17T15:06:17;14.10;90.70
46608;DHT22;32330;51.936;7.184;2024-03-17T15:08:44;14.00;1.00
46608;DHT22;32330;51.936;7.184;2024-03-17T15:11:13;13.90;44.20
46608;DHT22;32330;51.936;7.184;2024-03-17T15:13:46;13.90;1.00
46608;DHT22;32330;51.936;7.184;2024-03-17T15:16:15;13.90;1.00
46608;DHT22;32330;51.936;7.184;2024-03-17T15:18:45;13.90;99.90
46608;DHT22;32330;51.936;7.184;2024-03-17T15:21:12;13.90;99.90
46608;DHT22;32330;51.936;7.184;2024-03-17T15:23:45;13.80;99.90
46608;DHT22;32330;51.936;7.184;2024-03-17T15:26:27;13.70;82.10
46608;DHT22;32330;51.936;7.184;2024-03-17T15:28:55;13.70;99.90
46608;DHT22;32330;51.936;7.184;2024-03-17T15:31:24;13.80;99.90
46608;DHT22;32330;51.936;7.184;2024-03-17T15:33:52;13.70;1.00
46608;DHT22;32330;51.936;7.184;2024-03-17T15:36:31;13.70;20.40
46608;DHT22;32330;51.936;7.184;2024-03-17T15:39:13;13.70;92.00
46608;DHT22;32330;51.936;7.184;2024-03-17T15:42:21;13.70;99.90
46608;DHT22;32330;51.936;7.184;2024-03-17T15:44:55;13.70;99.90
46608;DHT22;32330;51.936;7.184;2024-03-17T15:47:29;13.60;99.90
46608;DHT22;32330;51.936;7.184;2024-03-17T15:50:07;13.60;1.00
46608;DHT22;32330;51.936;7.184;2024-03-17T15:52:40;13.60;99.90
46608;DHT22;32330;51.936;7.184;2024-03-17T15:55:13;13.60;13.30
46608;DHT22;32330;51.936;7.184;2024-03-17T15:57:43;13.50;99.90
46608;DHT22;32330;51.936;7.184;2024-03-17T16:00:13;13.60;99.90
46608;DHT22;32330;51.936;7.184;2024-03-17T16:02:42;13.40;99.90
46608;DHT22;32330;51.936;7.184;2024-03-17T16:05:12;13.40;99.90
46608;DHT22;32330;51.936;7.184;2024-03-17T16:07:40;13.40;99.90
46608;DHT22;32330;51.936;7.184;2024-03-17T16:10:10;13.40;99.90